Time;durP1;ratioP1;P1;durP2;ratioP2;P2;SDS_P1;SDS_P2;PMS_P1;PMS_P2;Temp;Humidity;BMP_temperature;BMP_pressure;BME280_temperature;BME280_humidity;BME280_pressure;Samples;Min_cycle;Max_cycle;Signal;HPM_P1;HPM_P2
2023/03/12 00:01:12;;;;;;;1.53;1.43;;;;;;;9.24;92.17;98302.22;5113610;28;20202;-60
2023/03/12 00:03:41;;;;;;;1.90;1.20;;;;;;;9.11;90.52;98272.59;5113277;28;20212;-62
2023/03/12 00:06:08;;;;;;;2.70;1.10;;;;;;;9.25;88.54;98292.72;5113258;28;20277;-63
2023/03/12 00:08:35;;;;;;;4.13;1.10;;;;;;;9.24;85.91;98302.22;5113326;28;20199;-64
2023/03/12 00:11:06;;;;;;;2.00;1.47;;;;;;;9.23;87.29;98310.06;5113054;28;20281;-62
2023/03/12 00:13:33;;;;;;;4.93;1.60;;;;;;;9.21;87.44;98317.03;5113445;28;20201;-63
2023/03/12 00:16:04;;;;;;;3.07;1.50;;;;;;;8.98;86.54;98284.38;5113330;28;20238;-61
2023/03/12 00:18:31;;;;;;;2.73;1.37;;;;;;;9.12;87.66;98318.28;5113006;28;20201;-61
2023/03/12 00:21:00;;;;;;;1.80;1.70;;;;;;;9.07;91.38;98321.06;5113210;28;20203;-60
2023/03/12 00:23:27;;;;;;;2.77;1.70;;;;;;;9.04;94.30;98317.72;5113129;28;20201;-61
2023/03/12 00:25:53;;;;;;;1.60;1.50;;;;;;;9.02;95.92;98322.16;5112716;28;20198;-61
2023/03/12 00:28:20;;;;;;;3.53;1.80;;;;;;;8.94;96.97;98314.69;5112848;28;20603;-62
2023/03/12 00:30:47;;;;;;;2.50;1.40;;;;;;;8.92;96.33;98315.66;5112981;28;20612;-61
2023/03/12 00:33:14;;;;;;;2.33;1.80;;;;;;;8.88;94.80;98327.06;5112720;28;20588;-61
2023/03/12 00:35:41;;;;;;;1.57;1.47;;;;;;;8.85;91.68;98324.59;5113040;28;20202;-63
2023/03/12 00:38:09;;;;;;;1.57;1.47;;;;;;;8.82;93.20;98320.38;5113059;28;20717;-63
2023/03/12 00:40:38;;;;;;;6.30;1.60;;;;;;;8.70;96.09;98315.69;5112813;28;20191;-62
2023/03/12 00:43:05;;;;;;;1.70;1.60;;;;;;;8.65;96.19;98309.88;5112659;28;20201;-63
2023/03/12 00:45:31;;;;;;;5.77;1.80;;;;;;;8.63;95.12;98328.03;5112447;28;20195;-61
2023/03/12 00:47:58;;;;;;;7.10;1.70;;;;;;;8.59;95.21;98317.88;5112179;28;20230;-63
2023/03/12 00:50:25;;;;;;;1.70;1.60;;;;;;;8.57;95.63;98310.19;5112656;28;20245;-64
2023/03/12 00:52:52;;;;;;;2.47;1.40;;;;;;;8.54;94.94;98305.13;5112492;28;20674;-61
2023/03/12 00:55:21;;;;;;;1.60;1.50;;;;;;;8.45;95.70;98302.06;5112359;28;20720;-62
2023/03/12 00:57:48;;;;;;;1.83;1.73;;;;;;;8.23;95.31;98281.38;5112511;28;20225;-62
2023/03/12 01:00:16;;;;;;;2.00;1.90;;;;;;;8.37;94.29;98317.88;5112478;28;20205;-61
2023/03/12 01:02:42;;;;;;;8.30;1.60;;;;;;;8.29;93.82;98317.31;5111677;28;20191;-62
2023/03/12 01:05:12;;;;;;;3.40;1.93;;;;;;;8.31;93.50;98333.59;5112240;28;20213;-62
2023/03/12 01:07:40;;;;;;;1.77;1.67;;;;;;;8.26;91.96;98328.59;5112287;28;20209;-63
2023/03/12 01:10:08;;;;;;;4.00;1.83;;;;;;;8.15;91.34;98335.91;5112196;28;20218;-61
2023/03/12 01:12:36;;;;;;;4.30;2.17;;;;;;;8.09;91.81;98350.81;5112130;28;20195;-62
2023/03/12 01:15:04;;;;;;;2.13;2.00;;;;;;;8.07;90.81;98335.38;5111882;28;20205;-62
2023/03/12 01:17:31;;;;;;;8.53;1.90;;;;;;;8.11;89.53;98341.28;5112071;28;20195;-63
2023/03/12 01:19:57;;;;;;;4.10;2.27;;;;;;;7.95;89.03;98331.50;5111922;28;20191;-64
2023/03/12 01:22:24;;;;;;;5.30;1.97;;;;;;;7.91;88.61;98342.84;5112111;28;20217;-62
2023/03/12 01:24:51;;;;;;;3.03;1.90;;;;;;;7.87;87.36;98341.28;5111811;28;20201;-61
2023/03/12 01:27:19;;;;;;;6.00;2.57;;;;;;;7.78;88.33;98344.22;5111505;28;20209;-61
2023/03/12 01:29:47;;;;;;;4.93;2.30;;;;;;;7.74;88.61;98342.63;5111923;28;20252;-63
2023/03/12 01:32:15;;;;;;;2.43;2.23;;;;;;;7.70;88.26;98346.19;5111962;28;20664;-63
2023/03/12 01:34:43;;;;;;;2.37;2.23;;;;;;;7.55;87.85;98351.94;5111818;28;20191;-63
2023/03/12 01:37:10;;;;;;;4.70;2.23;;;;;;;7.51;87.90;98358.94;5111472;28;20203;-62
2023/03/12 01:39:37;;;;;;;2.83;2.07;;;;;;;7.54;87.17;98358.84;5111672;28;20677;-62
2023/03/12 01:42:04;;;;;;;3.47;2.23;;;;;;;7.53;87.75;98375.22;5111383;28;20205;-63
2023/03/12 01:44:31;;;;;;;9.43;2.40;;;;;;;7.54;88.48;98374.31;5111690;28;20195;-63
2023/03/12 01:46:59;;;;;;;2.60;2.40;;;;;;;7.62;86.59;98374.03;5111213;28;20199;-63
2023/03/12 01:49:29;;;;;;;4.00;2.10;;;;;;;7.56;86.86;98377.66;5111442;28;20312;-64
2023/03/12 01:52:02;;;;;;;4.00;2.33;;;;;;;7.63;86.33;98380.91;5111344;28;20205;-63
2023/03/12 01:54:33;;;;;;;7.53;2.20;;;;;;;7.55;86.79;98404.41;5111103;28;20195;-63
2023/03/12 01:57:02;;;;;;;5.43;2.67;;;;;;;7.46;87.85;98394.38;5111116;28;20203;-63
2023/03/12 01:59:33;;;;;;;7.17;2.50;;;;;;;7.58;87.93;98417.19;5111252;28;20226;-63
2023/03/12 02:02:02;;;;;;;12.97;2.77;;;;;;;7.57;86.62;98417.25;5111125;28;20586;-63
2023/03/12 02:04:31;;;;;;;4.27;2.43;;;;;;;7.50;86.76;98400.28;5110450;28;20197;-62
2023/03/12 02:07:03;;;;;;;6.23;2.87;;;;;;;7.53;87.20;98426.00;5110719;28;20205;-61
2023/03/12 02:09:32;;;;;;;7.23;2.97;;;;;;;7.54;86.87;98430.28;5111010;28;20222;-61
2023/03/12 02:11:59;;;;;;;6.50;3.07;;;;;;;7.48;86.41;98413.25;5111044;28;20209;-63
2023/03/12 02:14:26;;;;;;;13.40;3.20;;;;;;;7.47;86.28;98439.09;5110933;28;20209;-62
2023/03/12 02:16:54;;;;;;;4.43;3.43;;;;;;;7.36;85.11;98444.63;5111115;28;20194;-61
2023/03/12 02:19:30;;;;;;;3.10;2.90;;;;;;;7.34;85.74;98451.56;5110788;28;20195;-61
2023/03/12 02:21:58;;;;;;;3.80;3.50;;;;;;;7.33;85.06;98438.75;5110818;28;20198;-61
2023/03/12 02:24:30;;;;;;;6.90;2.87;;;;;;;7.36;85.64;98456.69;5110749;28;20194;-62
2023/03/12 02:26:59;;;;;;;3.43;3.13;;;;;;;7.34;85.37;98461.06;5110546;28;20191;-63
2023/03/12 02:29:30;;;;;;;5.43;3.30;;;;;;;7.31;85.09;98459.44;5110604;28;20226;-62
2023/03/12 02:31:59;;;;;;;3.90;3.53;;;;;;;7.26;84.01;98462.16;5110567;28;20201;-63
2023/03/12 02:34:26;;;;;;;4.60;3.33;;;;;;;7.20;82.85;98467.53;5110626;28;20201;-62
2023/03/12 02:36:53;;;;;;;3.30;3.00;;;;;;;7.19;82.78;98483.06;5110562;28;20195;-63
2023/03/12 02:39:20;;;;;;;5.33;3.83;;;;;;;7.14;83.26;98477.19;5110761;28;20202;-63
2023/03/12 02:41:52;;;;;;;3.40;3.07;;;;;;;7.12;81.94;98491.84;5110516;28;20190;-62
2023/03/12 02:44:22;;;;;;;4.30;3.13;;;;;;;7.11;82.38;98496.19;5110615;28;20755;-63
2023/03/12 02:46:51;;;;;;;4.30;3.90;;;;;;;7.11;83.65;98488.44;5110326;28;20221;-63
2023/03/12 02:49:20;;;;;;;3.77;3.47;;;;;;;7.13;82.91;98496.13;5110652;28;20569;-61
2023/03/12 02:51:48;;;;;;;4.07;3.77;;;;;;;7.11;82.21;98495.34;5110603;28;20221;-64
2023/03/12 02:54:17;;;;;;;5.63;4.10;;;;;;;7.06;81.61;98500.66;5110199;28;20201;-62
2023/03/12 02:56:44;;;;;;;3.50;3.30;;;;;;;6.98;81.97;98501.78;5110379;28;20202;-63
2023/03/12 02:59:13;;;;;;;5.73;3.23;;;;;;;6.96;82.25;98508.72;5109936;28;20201;-63
2023/03/12 03:01:41;;;;;;;4.07;3.50;;;;;;;6.91;83.01;98503.69;5110476;28;20198;-61
2023/03/12 03:04:09;;;;;;;4.37;3.17;;;;;;;6.93;81.82;98510.50;5110172;28;20251;-62
2023/03/12 03:06:39;;;;;;;5.83;3.87;;;;;;;6.86;82.74;98515.91;5110050;28;20191;-62
2023/03/12 03:09:06;;;;;;;4.20;3.90;;;;;;;6.87;81.96;98521.00;5110217;28;20666;-62
2023/03/12 03:11:33;;;;;;;6.07;3.77;;;;;;;6.84;82.12;98528.84;5110012;28;20218;-61
2023/03/12 03:14:02;;;;;;;8.07;4.00;;;;;;;6.81;82.58;98533.22;5110196;28;20575;-61
2023/03/12 03:16:29;;;;;;;4.07;3.77;;;;;;;6.77;82.62;98535.03;5109928;28;20201;-61
2023/03/12 03:18:57;;;;;;;7.00;3.80;;;;;;;6.75;82.94;98539.41;5110009;28;20197;-63
2023/03/12 03:21:24;;;;;;;6.57;3.70;;;;;;;6.71;82.96;98542.13;5110220;28;20186;-61
2023/03/12 03:23:52;;;;;;;6.43;4.20;;;;;;;6.67;83.06;98541.34;5110254;28;20199;-62
2023/03/12 03:26:21;;;;;;;7.37;4.60;;;;;;;6.73;83.19;98543.78;5113041;28;20672;-61
2023/03/12 03:28:48;;;;;;;3.87;3.60;;;;;;;6.71;83.47;98553.28;5114453;28;20682;-63
2023/03/12 03:31:16;;;;;;;3.80;3.23;;;;;;;6.71;83.04;98555.00;5114326;28;20628;-61
2023/03/12 03:33:43;;;;;;;3.47;3.27;;;;;;;6.72;83.68;98551.53;5114170;28;20190;-62
2023/03/12 03:36:13;;;;;;;5.03;4.20;;;;;;;6.74;83.01;98555.78;5114092;28;20202;-62
2023/03/12 03:38:41;;;;;;;3.90;3.67;;;;;;;6.69;83.52;98569.69;5113968;28;20207;-63
2023/03/12 03:41:08;;;;;;;9.30;3.90;;;;;;;6.68;83.77;98578.28;5113733;28;20195;-63
2023/03/12 03:43:35;;;;;;;4.13;3.73;;;;;;;6.72;82.65;98574.75;5114360;28;20588;-62
2023/03/12 03:46:04;;;;;;;5.13;3.73;;;;;;;6.66;83.08;98575.75;5114065;28;20197;-62
2023/03/12 03:48:32;;;;;;;4.70;3.60;;;;;;;6.64;83.46;98579.28;5113648;28;20236;-62
2023/03/12 03:51:00;;;;;;;4.00;3.70;;;;;;;6.62;82.63;98591.38;5113586;28;20218;-62
2023/03/12 03:53:28;;;;;;;4.10;3.77;;;;;;;6.55;82.18;98588.94;5113764;28;20203;-61
2023/03/12 03:55:55;;;;;;;3.40;3.20;;;;;;;6.56;82.39;98585.47;5114051;28;20613;-62
2023/03/12 03:58:22;;;;;;;7.37;3.27;;;;;;;6.36;82.72;98556.84;5113519;28;20285;-62
2023/03/12 04:00:49;;;;;;;3.70;3.50;;;;;;;6.52;81.60;98583.06;5113687;28;20654;-62
2023/03/12 04:03:16;;;;;;;3.40;3.20;;;;;;;6.53;81.87;98589.91;5113567;28;20202;-61
2023/03/12 04:05:46;;;;;;;3.63;3.33;;;;;;;6.52;81.71;98583.91;5113380;28;20229;-62
2023/03/12 04:08:13;;;;;;;3.30;3.03;;;;;;;6.48;81.89;98595.16;5113423;28;20233;-61
2023/03/12 04:10:41;;;;;;;3.43;3.10;;;;;;;6.46;81.96;98584.06;5113594;28;20701;-63
2023/03/12 04:13:08;;;;;;;3.47;3.23;;;;;;;6.45;77.17;98613.28;5113520;28;20205;-63
2023/03/12 04:15:35;;;;;;;3.43;3.17;;;;;;;6.41;76.81;98611.69;5113692;28;20199;-62
2023/03/12 04:18:02;;;;;;;2.97;2.77;;;;;;;6.37;77.08;98616.97;5113252;28;20194;-62
2023/03/12 04:20:29;;;;;;;6.20;3.27;;;;;;;6.33;76.94;98616.19;5113525;28;20191;-60
2023/03/12 04:22:57;;;;;;;3.00;2.90;;;;;;;6.35;76.66;98627.31;5113399;28;20195;-61
2023/03/12 04:25:24;;;;;;;5.03;3.00;;;;;;;6.39;76.60;98634.09;5112978;28;20198;-61
2023/03/12 04:27:52;;;;;;;3.30;3.10;;;;;;;6.44;76.41;98628.78;5112884;28;20210;-62
2023/03/12 04:30:19;;;;;;;3.43;2.80;;;;;;;6.48;76.65;98633.84;5112598;28;20575;-63
2023/03/12 04:32:46;;;;;;;2.90;2.70;;;;;;;6.54;75.64;98627.69;5113042;28;20667;-62
2023/03/12 04:35:13;;;;;;;2.97;2.77;;;;;;;6.54;75.48;98633.69;5112837;28;20205;-61
2023/03/12 04:37:41;;;;;;;2.50;2.40;;;;;;;6.57;74.08;98631.00;5111469;28;20212;-61
2023/03/12 04:40:10;;;;;;;3.13;2.40;;;;;;;6.59;73.00;98625.81;5112697;28;20198;-62
2023/03/12 04:42:37;;;;;;;3.60;2.77;;;;;;;6.64;72.89;98638.59;5112701;28;20199;-60
2023/03/12 04:45:07;;;;;;;2.67;2.47;;;;;;;6.68;73.08;98640.19;5112594;28;20208;-62
2023/03/12 04:47:34;;;;;;;3.97;2.70;;;;;;;6.65;73.31;98645.44;5112269;28;20222;-61
2023/03/12 04:50:01;;;;;;;3.70;2.87;;;;;;;6.68;72.38;98655.66;5112711;28;20199;-62
2023/03/12 04:52:28;;;;;;;4.63;2.77;;;;;;;6.76;72.77;98659.75;5112846;28;20649;-62
2023/03/12 04:54:58;;;;;;;3.13;2.67;;;;;;;6.76;73.00;98664.06;5095326;28;20226;-62
2023/03/12 04:57:25;;;;;;;4.50;2.70;;;;;;;6.75;72.31;98663.19;5090981;28;20718;-61
2023/03/12 04:59:52;;;;;;;2.50;2.37;;;;;;;6.82;73.09;98677.59;5091200;28;20586;-63
2023/03/12 05:02:20;;;;;;;2.47;2.37;;;;;;;6.84;72.34;98685.31;5106548;28;20655;-62
2023/03/12 05:04:47;;;;;;;2.83;2.60;;;;;;;6.84;72.71;98678.41;5111871;28;20222;-63
2023/03/12 05:07:14;;;;;;;3.47;2.47;;;;;;;6.96;72.75;98677.25;5111627;28;20218;-66
2023/03/12 05:09:42;;;;;;;4.37;2.60;;;;;;;7.11;72.55;98692.28;5111929;28;20612;-61
2023/03/12 05:12:10;;;;;;;3.73;2.60;;;;;;;7.17;71.50;98701.59;5110465;28;20694;-61
2023/03/12 05:14:38;;;;;;;3.43;2.63;;;;;;;7.20;71.32;98712.69;5110303;28;20630;-60
2023/03/12 05:17:05;;;;;;;2.80;2.53;;;;;;;7.28;71.94;98710.72;5118501;27;20380;-61
2023/03/12 05:19:34;;;;;;;2.67;2.47;;;;;;;7.34;71.94;98714.00;5131274;27;20334;-62
2023/03/12 05:22:01;;;;;;;3.57;2.73;;;;;;;7.35;71.23;98726.03;5131505;27;20577;-63
2023/03/12 05:24:28;;;;;;;2.37;2.03;;;;;;;7.38;71.09;98720.78;5132495;27;20201;-62
2023/03/12 05:26:55;;;;;;;2.60;2.47;;;;;;;7.40;71.00;98724.16;5132377;27;20692;-61
2023/03/12 05:29:22;;;;;;;2.60;2.40;;;;;;;7.40;71.50;98729.34;5132214;27;20227;-62
2023/03/12 05:31:49;;;;;;;2.93;2.30;;;;;;;7.45;70.33;98733.47;5123894;27;20224;-61
2023/03/12 05:34:16;;;;;;;2.77;2.57;;;;;;;7.77;70.26;98718.78;5091151;28;20286;-61
2023/03/12 05:36:45;;;;;;;2.73;2.40;;;;;;;8.58;68.24;98727.41;5091271;28;20202;-61
2023/03/12 05:39:11;;;;;;;3.13;2.40;;;;;;;9.71;63.17;98732.81;5091321;28;20675;-62
2023/03/12 05:41:38;;;;;;;4.00;2.27;;;;;;;10.59;59.67;98731.13;5091233;28;20191;-62
2023/03/12 05:44:05;;;;;;;3.17;2.20;;;;;;;11.66;55.10;98740.28;5095160;28;20216;-61
2023/03/12 05:46:32;;;;;;;2.30;2.20;;;;;;;12.77;50.78;98734.97;5110533;28;20201;-62
2023/03/12 05:48:59;;;;;;;2.40;2.23;;;;;;;13.92;46.38;98745.47;5107112;28;20226;-63
2023/03/12 05:51:26;;;;;;;2.23;2.13;;;;;;;14.63;42.91;98754.53;5109843;28;20222;-63
2023/03/12 05:53:55;;;;;;;3.03;2.10;;;;;;;15.18;41.56;98752.16;5109819;28;20201;-62
2023/03/12 05:56:21;;;;;;;2.00;1.90;;;;;;;15.90;38.49;98768.72;5109773;28;20202;-62
2023/03/12 05:58:49;;;;;;;2.47;2.27;;;;;;;16.25;37.63;98769.13;5110663;28;20289;-62
2023/03/12 06:01:18;;;;;;;2.80;1.90;;;;;;;16.82;36.81;98767.13;5110095;28;20244;-62
2023/03/12 06:03:46;;;;;;;3.13;1.90;;;;;;;17.29;35.63;98779.69;5108968;28;20209;-64
2023/03/12 06:06:13;;;;;;;1.80;1.70;;;;;;;18.00;34.22;98778.28;5104208;28;20198;-63
2023/03/12 06:08:40;;;;;;;2.10;1.80;;;;;;;18.75;32.58;98790.31;5109116;28;20209;-62
2023/03/12 06:11:10;;;;;;;2.95;2.00;;;;;;;19.51;31.78;98796.94;5110604;28;20578;-62
2023/03/12 06:13:37;;;;;;;2.13;2.03;;;;;;;19.46;31.12;98815.66;5110510;28;20190;-62
2023/03/12 06:16:05;;;;;;;2.05;1.95;;;;;;;19.17;31.59;98807.34;5110907;28;20198;-63
2023/03/12 06:18:33;;;;;;;2.28;2.08;;;;;;;18.95;31.86;98806.44;5111008;28;20304;-62
2023/03/12 06:21:14;;;;;;;2.28;2.17;;;;;;;19.04;31.73;98813.66;5110934;28;20674;-62
2023/03/12 06:23:42;;;;;;;3.33;2.22;;;;;;;19.21;31.17;98823.72;5110758;28;20220;-64
2023/03/12 06:26:11;;;;;;;3.13;2.00;;;;;;;19.74;29.98;98832.03;5109927;28;20214;-62
2023/03/12 06:28:38;;;;;;;1.85;1.75;;;;;;;19.83;29.89;98841.84;5107239;28;20581;-63
2023/03/12 06:31:06;;;;;;;1.77;1.67;;;;;;;21.19;27.78;98829.16;5094334;28;20227;-62
2023/03/12 06:33:33;;;;;;;1.73;1.67;;;;;;;21.58;27.04;98832.88;5090361;28;20198;-62
2023/03/12 06:36:02;;;;;;;2.45;1.85;;;;;;;21.38;27.08;98847.75;5090104;28;20197;-62
2023/03/12 06:38:29;;;;;;;2.40;1.60;;;;;;;21.35;26.05;98853.28;5090386;28;20210;-62
2023/03/12 06:40:58;;;;;;;4.13;1.60;;;;;;;21.40;26.01;98847.63;5090264;28;20198;-62
2023/03/12 06:43:28;;;;;;;2.25;2.05;;;;;;;21.51;25.68;98848.41;5089791;28;20191;-64
2023/03/12 06:45:57;;;;;;;3.70;1.75;;;;;;;21.38;25.29;98868.88;5090001;28;20199;-65
2023/03/12 06:48:25;;;;;;;3.60;1.73;;;;;;;21.62;25.02;98866.84;5089541;28;20254;-66
2023/03/12 06:50:52;;;;;;;1.50;1.45;;;;;;;21.89;24.87;98868.94;5089925;28;20528;-67
2023/03/12 06:53:20;;;;;;;2.15;1.63;;;;;;;22.33;24.52;98862.50;5089879;28;20620;-64
2023/03/12 06:55:49;;;;;;;1.52;1.50;;;;;;;22.18;23.82;98866.47;5090098;28;20671;-64
2023/03/12 06:58:16;;;;;;;3.05;1.60;;;;;;;22.46;23.78;98883.38;5089927;28;20537;-64
2023/03/12 07:00:44;;;;;;;2.65;1.67;;;;;;;23.15;23.49;98893.97;5088969;28;20191;-64
2023/03/12 07:03:11;;;;;;;1.92;1.83;;;;;;;22.98;22.96;98879.63;5089667;28;20281;-64
2023/03/12 07:05:38;;;;;;;1.52;1.45;;;;;;;22.97;23.25;98901.78;5089890;28;20191;-65
2023/03/12 07:08:05;;;;;;;2.80;1.98;;;;;;;23.76;22.67;98891.88;5090021;28;20298;-63
2023/03/12 07:10:32;;;;;;;1.65;1.55;;;;;;;23.75;22.47;98897.31;5089801;28;20707;-66
2023/03/12 07:12:59;;;;;;;1.42;1.42;;;;;;;23.33;22.32;98902.09;5089656;28;20222;-64
2023/03/12 07:15:26;;;;;;;11.27;10.32;;;;;;;23.94;22.14;98899.94;5090765;28;20206;-64
2023/03/12 07:17:54;;;;;;;2.40;2.30;;;;;;;24.19;21.73;98919.69;5110195;28;20199;-62
2023/03/12 07:20:22;;;;;;;3.53;1.50;;;;;;;24.26;21.51;98899.59;5097683;28;20215;-62
2023/03/12 07:22:49;;;;;;;2.65;1.63;;;;;;;25.03;21.23;98919.63;5108352;28;20197;-62
2023/03/12 07:25:16;;;;;;;1.63;1.52;;;;;;;24.60;21.57;98908.63;5109275;28;20271;-62
2023/03/12 07:27:42;;;;;;;2.63;1.85;;;;;;;24.89;21.40;98916.44;5109202;28;20195;-62
2023/03/12 07:30:11;;;;;;;2.05;1.50;;;;;;;24.98;20.67;98887.34;5107851;28;20286;-62
2023/03/12 07:32:38;;;;;;;2.63;1.60;;;;;;;24.19;20.99;98909.06;5109612;28;20219;-63
2023/03/12 07:35:07;;;;;;;1.90;1.70;;;;;;;21.85;23.38;98885.19;5108368;28;20204;-63
2023/03/12 07:37:34;;;;;;;1.30;1.30;;;;;;;20.18;24.41;98889.16;5100187;28;20600;-64
2023/03/12 07:40:01;;;;;;;1.73;1.63;;;;;;;17.96;26.76;98876.59;5109601;28;20285;-63
2023/03/12 07:42:28;;;;;;;2.38;2.25;;;;;;;16.02;29.70;98882.28;5109687;28;20722;-61
2023/03/12 07:44:55;;;;;;;2.03;1.92;;;;;;;15.07;31.12;98877.38;5109823;28;20191;-62
2023/03/12 07:47:23;;;;;;;1.70;1.60;;;;;;;14.57;31.94;98866.31;5109875;28;20690;-62
2023/03/12 07:49:50;;;;;;;3.50;1.43;;;;;;;14.01;32.70;98860.59;5108044;28;20217;-62
2023/03/12 07:52:19;;;;;;;2.00;1.80;;;;;;;13.49;33.66;98885.09;5088693;28;20233;-67
2023/03/12 07:54:46;;;;;;;2.53;1.50;;;;;;;13.05;34.20;98888.13;5089352;28;20215;-66
2023/03/12 07:57:14;;;;;;;1.50;1.40;;;;;;;13.07;37.96;98876.72;5088535;28;20314;-67
2023/03/12 07:59:41;;;;;;;1.73;1.63;;;;;;;13.12;35.76;98873.03;5089642;28;20225;-65
2023/03/12 08:02:10;;;;;;;1.90;1.77;;;;;;;12.72;35.52;98885.38;5088499;28;20306;-62
2023/03/12 08:04:37;;;;;;;2.10;2.00;;;;;;;12.59;36.28;98887.72;5094103;28;20581;-60
2023/03/12 08:07:04;;;;;;;2.17;1.77;;;;;;;12.59;36.16;98895.53;5111084;28;20316;-60
2023/03/12 08:09:33;;;;;;;2.10;1.60;;;;;;;12.71;37.01;98886.31;5106908;28;20228;-60
2023/03/12 08:12:00;;;;;;;8.20;1.57;;;;;;;12.93;38.77;98909.56;5109081;28;20902;-60
2023/03/12 08:14:30;;;;;;;7.27;1.70;;;;;;;12.84;37.86;98917.81;5110425;28;20222;-60
2023/03/12 08:16:57;;;;;;;1.83;1.40;;;;;;;12.80;35.51;98930.13;5111386;28;20223;-60
2023/03/12 08:19:24;;;;;;;1.60;1.50;;;;;;;12.60;35.88;98920.66;5111184;28;20226;-60
2023/03/12 08:21:52;;;;;;;3.03;1.70;;;;;;;12.61;36.47;98924.94;5112016;28;20906;-60
2023/03/12 08:24:19;;;;;;;2.13;2.00;;;;;;;12.58;36.41;98913.81;5113963;27;20226;-61
2023/03/12 08:26:48;;;;;;;2.30;1.60;;;;;;;12.83;35.98;98908.31;5120277;27;20328;-60
2023/03/12 08:29:15;;;;;;;1.40;1.30;;;;;;;13.00;35.54;98901.34;5133367;27;20640;-60
2023/03/12 08:31:42;;;;;;;2.20;2.00;;;;;;;13.03;35.45;98900.38;5133102;27;20685;-61
2023/03/12 08:34:09;;;;;;;4.10;1.87;;;;;;;12.83;35.78;98877.06;5130586;27;20226;-61
2023/03/12 08:36:36;;;;;;;1.77;1.67;;;;;;;12.71;36.17;98868.91;5112297;28;20264;-61
2023/03/12 08:39:03;;;;;;;2.13;1.60;;;;;;;12.44;36.56;98849.38;5112569;28;20226;-66
2023/03/12 08:41:30;;;;;;;2.37;1.60;;;;;;;12.57;35.89;98854.84;5112500;28;20202;-61
2023/03/12 08:43:58;;;;;;;1.67;1.57;;;;;;;12.63;35.95;98854.59;5112354;28;20198;-62
2023/03/12 08:46:25;;;;;;;19.97;2.07;;;;;;;12.49;34.45;98859.59;5112649;28;20191;-61
2023/03/12 08:48:52;;;;;;;3.83;1.70;;;;;;;12.48;34.35;98878.72;5112874;28;20230;-62
2023/03/12 08:51:19;;;;;;;1.93;1.80;;;;;;;12.47;35.07;98887.44;5112572;28;20195;-61
2023/03/12 08:53:46;;;;;;;2.90;2.10;;;;;;;12.58;35.98;98900.81;5112945;28;20290;-65
2023/03/12 08:56:13;;;;;;;4.40;2.10;;;;;;;12.54;36.05;98913.09;5113004;28;20585;-65
2023/03/12 08:58:40;;;;;;;1.60;1.50;;;;;;;12.56;34.90;98908.69;5112789;28;20205;-60
2023/03/12 09:01:11;;;;;;;6.13;1.77;;;;;;;12.49;33.94;98909.88;5095214;28;20237;-61
2023/03/12 09:03:39;;;;;;;3.87;1.27;;;;;;;12.41;33.25;98916.38;5092110;28;20191;-60
2023/03/12 09:06:12;;;;;;;1.30;1.20;;;;;;;12.34;33.66;98927.03;5092077;28;20203;-60
2023/03/12 09:08:39;;;;;;;2.30;1.37;;;;;;;12.21;33.18;98910.28;5092068;28;20277;-60
2023/03/12 09:11:06;;;;;;;1.30;1.20;;;;;;;12.14;33.98;98908.03;5092086;28;20203;-61
2023/03/12 09:13:33;;;;;;;1.50;1.40;;;;;;;12.04;35.52;98897.22;5092165;28;20215;-60
2023/03/12 09:16:00;;;;;;;2.03;1.83;;;;;;;11.91;36.29;98891.69;5092081;28;20203;-65
2023/03/12 09:18:29;;;;;;;3.60;1.63;;;;;;;11.80;35.95;98882.69;5108402;28;20655;-59
2023/03/12 09:20:57;;;;;;;2.70;1.33;;;;;;;11.75;35.68;98895.00;5112064;28;20203;-64
2023/03/12 09:23:25;;;;;;;3.00;1.60;;;;;;;11.83;35.79;98893.81;5111348;28;20209;-65
2023/03/12 09:25:52;;;;;;;3.43;2.00;;;;;;;11.92;35.57;98902.94;5112202;28;20195;-65
2023/03/12 09:28:19;;;;;;;1.77;1.67;;;;;;;11.86;35.60;98895.41;5116105;27;20190;-61
2023/03/12 09:30:46;;;;;;;1.57;1.47;;;;;;;11.89;36.26;98884.88;5111412;28;20194;-60
2023/03/12 09:33:15;;;;;;;2.03;1.87;;;;;;;12.02;36.50;98892.97;5111660;28;20223;-61
2023/03/12 09:35:43;;;;;;;6.73;2.50;;;;;;;12.23;36.82;98898.06;5111460;28;20202;-65
2023/03/12 09:38:13;;;;;;;10.50;2.80;;;;;;;12.20;36.20;98908.59;5111257;28;20566;-61
2023/03/12 09:40:43;;;;;;;2.97;1.60;;;;;;;12.21;35.55;98889.47;5111039;28;20601;-61
2023/03/12 09:43:18;;;;;;;4.40;1.70;;;;;;;12.14;36.24;98905.44;5110958;28;20256;-61
2023/03/12 09:45:47;;;;;;;1.90;1.80;;;;;;;12.25;35.62;98927.47;5111015;28;20197;-65
2023/03/12 09:48:19;;;;;;;8.17;2.47;;;;;;;12.20;35.89;98912.97;5110798;28;20244;-65
2023/03/12 09:50:50;;;;;;;3.10;2.23;;;;;;;12.04;35.97;98924.97;5111129;28;20249;-64
2023/03/12 09:53:26;;;;;;;6.40;2.30;;;;;;;11.85;36.60;98927.53;5110895;28;20226;-65
2023/03/12 09:55:55;;;;;;;2.43;2.07;;;;;;;11.89;37.26;98931.69;5110554;28;20226;-65
2023/03/12 09:58:27;;;;;;;2.47;1.97;;;;;;;12.08;37.63;98929.09;5110815;28;20191;-61
2023/03/12 10:00:59;;;;;;;3.20;2.20;;;;;;;12.19;37.82;98929.50;5110694;28;20205;-61
2023/03/12 10:03:49;;;;;;;17.47;2.90;;;;;;;12.36;36.77;98927.81;5110588;28;20226;-61
2023/03/12 10:06:20;;;;;;;3.63;1.90;;;;;;;12.21;36.47;98935.47;5110608;28;20206;-62
2023/03/12 10:08:58;;;;;;;2.73;1.87;;;;;;;12.13;36.32;98930.59;5110733;28;20205;-62
2023/03/12 10:11:38;;;;;;;1.70;1.60;;;;;;;12.02;36.06;98930.25;5110352;28;20226;-63
2023/03/12 10:14:17;;;;;;;8.20;3.20;;;;;;;12.02;37.65;98919.84;5110690;28;20677;-63
2023/03/12 10:16:54;;;;;;;4.20;2.67;;;;;;;12.11;37.32;98936.78;5110389;28;20195;-63
2023/03/12 10:19:36;;;;;;;1.73;1.60;;;;;;;12.02;36.96;98938.03;5110551;28;20698;-63
2023/03/12 10:22:13;;;;;;;4.50;2.30;;;;;;;11.99;36.23;98935.56;5110355;28;20283;-62
2023/03/12 10:24:52;;;;;;;2.40;2.17;;;;;;;12.04;37.09;98932.78;5110452;28;20190;-62
2023/03/12 10:27:23;;;;;;;3.53;2.30;;;;;;;12.08;37.68;98929.09;5110214;28;20202;-62
2023/03/12 10:29:53;;;;;;;10.03;2.47;;;;;;;12.14;37.97;98934.91;5110129;28;20198;-63
2023/03/12 10:32:24;;;;;;;5.00;2.53;;;;;;;12.36;40.08;98940.00;5109954;28;20231;-62
2023/03/12 10:34:55;;;;;;;13.03;2.90;;;;;;;12.50;38.74;98940.22;5110231;28;20202;-63
2023/03/12 10:37:26;;;;;;;4.60;2.53;;;;;;;12.26;39.52;98955.16;5110309;28;20285;-63
2023/03/12 10:39:54;;;;;;;2.67;2.10;;;;;;;12.28;39.97;98955.09;5110325;28;20201;-63
2023/03/12 10:42:22;;;;;;;3.50;2.40;;;;;;;12.14;38.30;98952.25;5109766;28;20234;-62
2023/03/12 10:44:53;;;;;;;2.53;2.10;;;;;;;12.06;38.89;98933.56;5109998;28;20187;-62
2023/03/12 10:47:34;;;;;;;4.63;2.00;;;;;;;12.27;38.93;98959.47;5109701;28;20230;-63
2023/03/12 10:50:17;;;;;;;2.57;2.10;;;;;;;12.18;37.90;98946.88;5109670;28;20202;-62
2023/03/12 10:52:47;;;;;;;2.07;1.97;;;;;;;12.44;38.54;98952.63;5109825;28;20725;-63
2023/03/12 10:55:21;;;;;;;5.90;2.67;;;;;;;12.62;37.39;98957.03;5108387;28;20618;-63
2023/03/12 10:57:49;;;;;;;2.37;2.17;;;;;;;12.60;36.94;98948.44;5101324;28;20599;-63
2023/03/12 11:00:21;;;;;;;1.80;1.70;;;;;;;12.61;37.42;98944.94;5099599;28;20575;-63
2023/03/12 11:02:57;;;;;;;7.53;3.10;;;;;;;12.48;37.86;98934.22;5107010;28;20635;-63
2023/03/12 11:05:26;;;;;;;7.77;4.10;;;;;;;12.33;38.05;98933.16;5108190;28;20194;-63
2023/03/12 11:07:56;;;;;;;22.20;13.88;;;;;;;12.43;37.28;98935.34;5107884;28;20445;-62
2023/03/12 11:10:25;;;;;;;29.80;19.50;;;;;;;12.43;37.42;98941.38;5108136;28;20736;-63
2023/03/12 11:13:04;;;;;;;18.67;11.73;;;;;;;12.65;37.22;98936.03;5107986;28;20258;-63
2023/03/12 11:15:39;;;;;;;6.63;5.50;;;;;;;12.88;36.77;98940.16;5106081;28;20194;-63
2023/03/12 11:18:23;;;;;;;4.50;3.77;;;;;;;12.86;35.90;98942.03;5105521;28;20204;-61
2023/03/12 11:21:09;;;;;;;2.30;2.20;;;;;;;12.86;35.87;98937.66;5105477;28;20210;-62
2023/03/12 11:24:23;;;;;;;5.73;3.03;;;;;;;12.81;36.33;98934.41;5107084;28;20198;-61
2023/03/12 11:26:52;;;;;;;5.80;2.30;;;;;;;12.79;36.17;98938.84;5109344;28;20202;-62
2023/03/12 11:29:31;;;;;;;3.50;2.67;;;;;;;12.74;37.02;98930.44;5089982;28;20219;-62
2023/03/12 11:32:06;;;;;;;2.63;2.40;;;;;;;12.75;36.87;98939.94;5089263;28;20228;-61
2023/03/12 11:34:37;;;;;;;3.03;2.73;;;;;;;12.62;36.55;98931.00;5089228;28;20685;-60
2023/03/12 11:37:11;;;;;;;4.97;2.40;;;;;;;12.51;36.76;98926.28;5092668;28;20230;-60
2023/03/12 11:39:51;;;;;;;2.20;2.10;;;;;;;12.59;37.28;98929.38;5106946;28;20607;-61
2023/03/12 11:42:33;;;;;;;5.53;3.80;;;;;;;12.65;37.63;98943.84;5105857;28;20218;-61
2023/03/12 11:45:13;;;;;;;2.37;2.17;;;;;;;12.60;36.75;98930.22;5107688;28;20223;-62